Time;durP1;ratioP1;P1;durP2;ratioP2;P2;SDS_P1;SDS_P2;PMS_P1;PMS_P2;Temp;Humidity;BMP_temperature;BMP_pressure;BME280_temperature;BME280_humidity;BME280_pressure;Samples;Min_cycle;Max_cycle;Signal;HPM_P1;HPM_P2
2022/04/01 00:00:18;;;;;;;1.60;0.70;;;21.30;43.70;;;;;;5068983;28;20406;-67
2022/04/01 00:02:44;;;;;;;2.10;0.90;;;21.30;43.70;;;;;;5069895;28;20599;-66
2022/04/01 00:05:10;;;;;;;4.03;1.10;;;21.30;43.60;;;;;;5070354;28;20406;-65
2022/04/01 00:07:38;;;;;;;8.20;1.20;;;20.70;42.00;;;;;;5070655;28;20455;-67
2022/04/01 00:10:04;;;;;;;11.83;1.43;;;20.80;43.50;;;;;;5072104;28;20493;-67
2022/04/01 00:12:30;;;;;;;3.80;1.10;;;21.00;43.00;;;;;;5072233;28;20825;-66
2022/04/01 00:14:55;;;;;;;3.50;1.20;;;21.10;42.60;;;;;;5071992;28;20407;-66
2022/04/01 00:17:21;;;;;;;2.23;0.90;;;21.10;42.60;;;;;;5072352;28;20164;-67
2022/04/01 00:19:47;;;;;;;8.33;1.30;;;21.10;42.40;;;;;;5073011;28;20195;-67
2022/04/01 00:22:12;;;;;;;8.00;1.10;;;21.10;42.70;;;;;;5072023;28;20648;-66
2022/04/01 00:24:38;;;;;;;8.53;1.73;;;21.10;42.70;;;;;;5073616;28;20169;-67
2022/04/01 00:27:04;;;;;;;3.47;1.00;;;21.10;42.70;;;;;;5071927;28;20204;-67
2022/04/01 00:29:30;;;;;;;5.67;1.10;;;21.20;42.60;;;;;;5073183;28;20554;-68
2022/04/01 00:32:00;;;;;;;1.87;0.90;;;21.20;42.60;;;;;;5071995;28;20656;-66
2022/04/01 00:34:31;;;;;;;1.73;1.00;;;21.20;42.40;;;;;;5072081;28;20441;-68
2022/04/01 00:36:59;;;;;;;3.83;0.83;;;21.10;42.40;;;;;;5071958;28;20422;-66
2022/04/01 00:39:26;;;;;;;1.50;0.90;;;21.10;42.40;;;;;;5071500;28;20803;-66
2022/04/01 00:41:53;;;;;;;1.93;0.87;;;21.10;42.50;;;;;;5071754;28;20431;-67
2022/04/01 00:44:28;;;;;;;4.70;1.10;;;21.20;42.60;;;;;;5071948;28;20474;-65
2022/04/01 00:46:56;;;;;;;5.43;1.10;;;21.10;42.70;;;;;;5071983;28;20436;-67
2022/04/01 00:49:23;;;;;;;4.90;1.10;;;21.10;42.50;;;;;;5071238;28;20411;-66
2022/04/01 00:51:52;;;;;;;4.67;0.80;;;21.10;42.70;;;;;;5071451;28;20457;-67
2022/04/01 00:54:18;;;;;;;2.20;1.07;;;21.10;42.40;;;;;;5071673;28;20415;-67
2022/04/01 00:56:44;;;;;;;8.53;1.23;;;21.10;42.40;;;;;;5071558;28;20883;-65
2022/04/01 00:59:11;;;;;;;9.20;1.07;;;21.10;42.60;;;;;;5071313;28;20500;-66
2022/04/01 01:01:40;;;;;;;1.73;1.07;;;21.10;42.60;;;;;;5055198;28;20459;-67
2022/04/01 01:04:08;;;;;;;1.97;0.80;;;21.10;42.40;;;;;;5071591;28;20415;-66
2022/04/01 01:06:41;;;;;;;1.43;0.80;;;21.10;42.50;;;;;;5071670;28;20414;-66
2022/04/01 01:09:07;;;;;;;4.50;1.00;;;21.10;42.60;;;;;;5071091;28;20458;-67
2022/04/01 01:11:35;;;;;;;1.67;0.90;;;21.10;42.40;;;;;;5071399;28;20466;-67
2022/04/01 01:14:02;;;;;;;1.77;1.10;;;21.10;42.30;;;;;;5071370;28;20179;-67
2022/04/01 01:16:28;;;;;;;1.23;0.80;;;21.10;42.70;;;;;;5071510;28;20421;-67
2022/04/01 01:19:03;;;;;;;1.80;0.90;;;21.10;42.60;;;;;;5071012;28;20464;-67
2022/04/01 01:21:30;;;;;;;1.77;0.90;;;21.10;42.60;;;;;;5071448;28;20434;-66
2022/04/01 01:24:04;;;;;;;3.70;0.80;;;21.10;42.80;;;;;;5071574;28;20414;-67
2022/04/01 01:26:31;;;;;;;2.77;1.10;;;21.10;42.80;;;;;;5073975;28;20414;-66
2022/04/01 01:28:57;;;;;;;2.40;1.00;;;21.10;42.60;;;;;;5074984;28;20914;-67
2022/04/01 01:31:24;;;;;;;1.73;1.10;;;21.10;42.90;;;;;;5075349;28;20533;-65
2022/04/01 01:33:51;;;;;;;1.50;1.00;;;21.10;42.60;;;;;;5075325;28;20406;-67
2022/04/01 01:36:17;;;;;;;1.73;1.03;;;21.10;42.80;;;;;;5075347;28;20407;-65
2022/04/01 01:38:43;;;;;;;5.20;1.27;;;21.00;42.50;;;;;;5075098;28;20615;-67
2022/04/01 01:41:08;;;;;;;2.13;1.07;;;21.10;42.80;;;;;;5075032;28;20210;-66
2022/04/01 01:43:34;;;;;;;1.27;0.80;;;21.10;42.60;;;;;;5075192;28;20184;-66
2022/04/01 01:46:00;;;;;;;2.30;1.00;;;21.10;42.90;;;;;;5075177;28;20176;-68
2022/04/01 01:48:26;;;;;;;2.73;1.20;;;21.10;43.20;;;;;;5075122;28;20184;-66
2022/04/01 01:56:20;;;;;;;1.70;1.20;;;21.00;43.00;;;;;;5076684;28;20440;-65
2022/04/01 01:58:46;;;;;;;1.60;1.00;;;21.00;43.40;;;;;;5074640;28;20838;-67
2022/04/01 02:01:12;;;;;;;2.50;1.20;;;21.10;43.10;;;;;;5074677;28;20278;-66
2022/04/01 02:03:37;;;;;;;11.40;1.10;;;21.10;42.90;;;;;;5074990;28;20827;-66
2022/04/01 02:06:03;;;;;;;2.10;1.10;;;21.10;42.40;;;;;;5074891;28;20518;-66
2022/04/01 02:08:32;;;;;;;2.07;1.10;;;21.10;43.00;;;;;;5074522;28;20565;-67
2022/04/01 02:10:59;;;;;;;8.20;2.00;;;21.10;42.50;;;;;;5074575;28;20201;-67
2022/04/01 02:13:27;;;;;;;1.90;1.17;;;21.10;42.80;;;;;;5074600;28;20430;-67
2022/04/01 02:15:53;;;;;;;1.97;1.10;;;21.10;42.60;;;;;;5074604;28;20472;-65
2022/04/01 02:18:20;;;;;;;2.10;1.20;;;21.10;42.60;;;;;;5074398;28;20989;-67
2022/04/01 02:20:47;;;;;;;2.20;1.37;;;21.10;42.60;;;;;;5073984;28;20431;-67
2022/04/01 02:23:12;;;;;;;2.27;1.27;;;21.10;42.40;;;;;;5074619;28;20419;-66
2022/04/01 02:25:42;;;;;;;2.17;1.40;;;21.00;42.20;;;;;;5074450;28;20445;-65
2022/04/01 02:28:08;;;;;;;1.90;1.20;;;21.00;42.60;;;;;;5074453;28;20172;-65
2022/04/01 02:30:34;;;;;;;3.83;1.20;;;21.00;42.40;;;;;;5074008;28;20469;-67
2022/04/01 02:33:02;;;;;;;2.17;1.33;;;21.00;43.10;;;;;;5075650;28;20878;-67
2022/04/01 02:35:28;;;;;;;3.40;1.20;;;21.00;42.50;;;;;;5074672;28;20488;-66
2022/04/01 02:37:53;;;;;;;2.30;1.20;;;21.10;42.90;;;;;;5073950;28;20450;-67
2022/04/01 02:40:19;;;;;;;1.90;1.07;;;21.00;42.90;;;;;;5073776;28;20407;-66
2022/04/01 02:42:44;;;;;;;2.03;1.10;;;21.00;42.60;;;;;;5074090;28;20283;-66
2022/04/01 02:45:10;;;;;;;1.57;1.00;;;21.10;42.70;;;;;;5074110;28;20172;-65
2022/04/01 02:47:36;;;;;;;2.10;1.20;;;21.10;43.30;;;;;;5074206;28;20172;-66
2022/04/01 02:50:04;;;;;;;3.00;1.40;;;21.10;42.50;;;;;;5073637;28;20173;-67
2022/04/01 02:52:30;;;;;;;2.10;1.23;;;21.00;42.80;;;;;;5073799;28;20227;-67
2022/04/01 02:54:56;;;;;;;1.70;1.10;;;21.10;42.40;;;;;;5073951;28;20407;-67
2022/04/01 02:57:22;;;;;;;2.10;1.30;;;21.10;42.50;;;;;;5074001;28;20183;-67
2022/04/01 02:59:48;;;;;;;2.30;1.20;;;21.00;42.60;;;;;;5073347;28;20458;-66
2022/04/01 03:02:15;;;;;;;2.80;1.50;;;21.00;42.70;;;;;;5073780;28;20668;-67
2022/04/01 03:04:40;;;;;;;1.73;1.30;;;21.00;42.50;;;;;;5073751;28;20423;-67
2022/04/01 03:07:06;;;;;;;2.63;1.50;;;21.00;42.80;;;;;;5073589;28;20914;-67
2022/04/01 03:09:33;;;;;;;1.67;0.93;;;21.00;42.80;;;;;;5073173;28;20628;-67
2022/04/01 03:12:00;;;;;;;2.57;1.30;;;21.00;42.50;;;;;;5073622;28;20442;-67
2022/04/01 03:14:26;;;;;;;4.90;1.40;;;21.00;42.60;;;;;;5073714;28;20439;-67
2022/04/01 03:16:52;;;;;;;1.50;1.07;;;21.00;42.50;;;;;;5073468;28;20768;-67
2022/04/01 03:19:19;;;;;;;2.17;1.20;;;21.00;42.20;;;;;;5073054;28;20454;-67
2022/04/01 03:21:45;;;;;;;3.83;1.00;;;21.00;42.90;;;;;;5073435;28;20469;-67
2022/04/01 03:24:11;;;;;;;1.93;1.20;;;21.00;42.50;;;;;;5073290;28;20410;-67
2022/04/01 03:26:38;;;;;;;1.93;1.30;;;21.00;42.80;;;;;;5074309;28;20165;-67
2022/04/01 03:29:06;;;;;;;1.60;1.10;;;21.00;43.50;;;;;;5072788;28;20419;-67
2022/04/01 03:31:32;;;;;;;2.50;1.43;;;21.00;42.70;;;;;;5073360;28;20439;-67
2022/04/01 03:33:57;;;;;;;2.23;1.23;;;21.00;42.90;;;;;;5073227;28;20407;-67
2022/04/01 03:36:23;;;;;;;1.80;1.03;;;21.00;42.80;;;;;;5073142;28;20184;-67
2022/04/01 03:38:49;;;;;;;2.30;1.40;;;21.00;42.50;;;;;;5072621;28;20210;-67
2022/04/01 03:41:14;;;;;;;2.33;1.50;;;21.00;42.60;;;;;;5072818;28;20556;-67
2022/04/01 03:43:40;;;;;;;2.20;1.20;;;21.00;42.40;;;;;;5072994;28;20195;-67
2022/04/01 03:46:13;;;;;;;1.97;1.13;;;21.00;42.60;;;;;;5072916;28;20169;-67
2022/04/01 03:48:40;;;;;;;2.33;1.27;;;21.00;42.50;;;;;;5071908;28;20437;-67
2022/04/01 03:51:06;;;;;;;2.00;1.27;;;21.00;42.60;;;;;;5072677;28;20450;-67
2022/04/01 03:53:34;;;;;;;6.60;1.20;;;21.00;42.80;;;;;;5072753;28;20423;-68
2022/04/01 03:56:01;;;;;;;2.17;1.30;;;21.00;42.80;;;;;;5072690;28;20418;-67
2022/04/01 03:58:32;;;;;;;9.43;1.30;;;21.00;42.80;;;;;;5072217;28;20458;-67
2022/04/01 04:01:00;;;;;;;8.30;1.57;;;21.00;43.00;;;;;;5072456;28;20878;-67
2022/04/01 04:03:29;;;;;;;3.33;1.47;;;21.00;43.00;;;;;;5072503;28;20426;-68
2022/04/01 04:05:56;;;;;;;1.83;1.00;;;21.00;42.80;;;;;;5072458;28;20414;-68
2022/04/01 04:08:23;;;;;;;4.70;1.30;;;21.00;42.70;;;;;;5072183;28;20485;-68
2022/04/01 04:10:50;;;;;;;2.50;1.27;;;21.00;42.90;;;;;;5072046;28;20973;-68
2022/04/01 04:13:17;;;;;;;2.00;1.30;;;21.00;42.80;;;;;;5072149;28;20933;-68
2022/04/01 04:16:08;;;;;;;2.03;1.40;;;21.00;43.10;;;;;;5072101;28;20418;-68
2022/04/01 04:18:43;;;;;;;2.10;1.13;;;20.90;43.00;;;;;;5071759;28;20541;-67
2022/04/01 04:21:29;;;;;;;2.23;1.37;;;20.90;43.20;;;;;;5071944;28;20433;-66
2022/04/01 04:23:58;;;;;;;2.20;1.20;;;20.90;43.40;;;;;;5072068;28;20406;-67
2022/04/01 04:26:32;;;;;;;2.37;1.40;;;20.90;43.10;;;;;;5072142;28;20410;-67
2022/04/01 04:29:08;;;;;;;2.73;1.33;;;20.90;43.50;;;;;;5071754;28;20418;-67
2022/04/01 04:31:35;;;;;;;2.40;1.40;;;20.90;43.30;;;;;;5071851;28;20787;-67
2022/04/01 04:34:03;;;;;;;2.10;1.20;;;20.90;43.40;;;;;;5072234;28;20957;-67
2022/04/01 04:36:39;;;;;;;2.60;1.40;;;20.90;43.20;;;;;;5071869;28;20419;-67
2022/04/01 04:39:31;;;;;;;1.80;1.20;;;20.90;43.10;;;;;;5071377;28;20846;-67
2022/04/01 04:41:57;;;;;;;3.10;1.50;;;20.90;43.00;;;;;;5072279;28;20461;-67
2022/04/01 04:44:28;;;;;;;2.97;1.80;;;20.90;43.30;;;;;;5071794;28;20438;-67
2022/04/01 04:46:59;;;;;;;2.47;1.40;;;20.90;43.10;;;;;;5071760;28;20164;-67
2022/04/01 04:49:29;;;;;;;2.20;1.20;;;20.90;42.90;;;;;;5071430;28;20410;-66
2022/04/01 04:51:56;;;;;;;1.80;1.10;;;21.00;42.60;;;;;;5072788;28;20446;-67
2022/04/01 04:54:24;;;;;;;3.37;1.47;;;21.00;42.60;;;;;;5071818;28;20425;-68
2022/04/01 04:56:50;;;;;;;3.20;1.93;;;21.00;42.50;;;;;;5071695;28;20765;-67
2022/04/01 04:59:21;;;;;;;3.40;2.20;;;21.00;42.80;;;;;;5071136;28;20489;-67
2022/04/01 05:01:55;;;;;;;4.20;2.37;;;21.00;42.60;;;;;;5071689;28;20433;-67
2022/04/01 05:04:52;;;;;;;5.03;2.60;;;21.00;42.60;;;;;;5071670;28;20910;-68
2022/04/01 05:07:24;;;;;;;5.27;3.03;;;21.00;42.40;;;;;;5071492;28;20403;-68
2022/04/01 05:10:02;;;;;;;6.57;3.53;;;21.00;42.80;;;;;;5071323;28;20918;-67
2022/04/01 05:12:39;;;;;;;7.67;3.90;;;21.10;42.50;;;;;;5071596;28;20460;-67
2022/04/01 05:15:09;;;;;;;6.97;4.10;;;21.10;42.70;;;;;;5071549;28;20422;-65
2022/04/01 05:17:56;;;;;;;25.43;5.00;;;21.10;43.70;;;;;;5071681;28;20465;-67
2022/04/01 05:20:33;;;;;;;13.10;5.63;;;21.10;44.20;;;;;;5070949;28;20501;-67
2022/04/01 05:23:15;;;;;;;14.00;6.23;;;21.10;43.50;;;;;;5071513;28;20402;-68
2022/04/01 05:25:49;;;;;;;11.43;6.03;;;20.80;40.30;;;;;;5071474;28;20402;-69
2022/04/01 05:28:24;;;;;;;19.43;5.73;;;20.30;39.70;;;;;;5071395;28;20407;-68
2022/04/01 05:31:18;;;;;;;9.47;4.80;;;20.40;41.20;;;;;;5071048;28;20422;-69
2022/04/01 05:34:08;;;;;;;8.83;5.40;;;20.60;41.90;;;;;;5071449;28;20756;-68
2022/04/01 05:36:34;;;;;;;9.20;4.30;;;20.70;41.70;;;;;;5071228;28;20408;-69
2022/04/01 05:39:00;;;;;;;8.70;4.43;;;20.80;42.10;;;;;;5070890;28;20457;-69
2022/04/01 05:41:27;;;;;;;8.73;4.67;;;20.80;41.90;;;;;;5071183;28;20431;-69
2022/04/01 05:43:53;;;;;;;8.20;4.20;;;20.80;41.40;;;;;;5071166;28;20502;-68
2022/04/01 05:46:22;;;;;;;9.70;4.63;;;20.80;41.40;;;;;;5071142;28;20399;-69
2022/04/01 05:48:49;;;;;;;10.33;5.00;;;20.80;42.10;;;;;;5070888;28;20403;-69
2022/04/01 05:51:15;;;;;;;11.03;4.67;;;20.80;41.70;;;;;;5070853;28;20777;-67
2022/04/01 05:53:45;;;;;;;9.00;4.63;;;20.80;42.00;;;;;;5072485;28;20410;-69
2022/04/01 05:56:12;;;;;;;7.80;4.80;;;20.80;41.70;;;;;;5071084;28;20406;-68
2022/04/01 05:58:39;;;;;;;8.47;5.00;;;20.80;41.60;;;;;;5070783;28;20822;-69
2022/04/01 06:01:26;;;;;;;11.07;4.90;;;20.80;41.90;;;;;;5070964;28;20427;-69
2022/04/01 06:04:07;;;;;;;15.50;4.50;;;20.90;41.40;;;;;;5066262;28;20434;-68
2022/04/01 06:06:41;;;;;;;8.50;4.77;;;20.90;41.50;;;;;;5058625;28;20407;-68
2022/04/01 06:09:34;;;;;;;8.00;4.17;;;20.90;41.10;;;;;;5066621;28;20411;-69
2022/04/01 06:12:20;;;;;;;6.83;4.70;;;20.90;41.40;;;;;;5068889;28;20463;-69
2022/04/01 06:14:52;;;;;;;8.27;4.30;;;20.90;41.50;;;;;;5054492;28;20443;-69
2022/04/01 06:17:37;;;;;;;7.13;4.40;;;20.90;41.70;;;;;;5073487;28;20478;-69
2022/04/01 06:20:07;;;;;;;7.30;4.50;;;20.90;42.00;;;;;;5059102;28;21188;-68
2022/04/01 06:22:41;;;;;;;19.37;4.83;;;20.80;42.00;;;;;;5064220;28;20511;-68
2022/04/01 06:25:17;;;;;;;8.83;4.63;;;20.80;42.50;;;;;;5063666;28;20422;-67
2022/04/01 06:27:45;;;;;;;5.80;4.03;;;20.70;42.40;;;;;;5060105;28;20898;-68
2022/04/01 06:30:15;;;;;;;9.50;4.30;;;20.70;42.40;;;;;;5065324;28;20403;-68
2022/04/01 06:32:50;;;;;;;7.03;4.40;;;20.70;42.30;;;;;;5066421;28;20445;-68
2022/04/01 06:35:26;;;;;;;7.53;4.70;;;20.70;42.20;;;;;;5056916;28;20400;-68
2022/04/01 06:37:55;;;;;;;6.60;4.13;;;20.70;42.30;;;;;;5054311;28;20511;-69
2022/04/01 06:40:23;;;;;;;7.13;3.97;;;20.70;42.50;;;;;;5054104;28;20434;-69
2022/04/01 06:42:53;;;;;;;7.27;4.40;;;20.70;42.40;;;;;;5070149;28;20419;-68
2022/04/01 06:45:19;;;;;;;7.43;4.07;;;20.70;42.20;;;;;;5074036;28;20407;-69
2022/04/01 06:47:46;;;;;;;7.23;3.90;;;20.70;42.20;;;;;;5073981;28;20415;-68
2022/04/01 06:50:13;;;;;;;5.13;3.33;;;20.70;42.30;;;;;;5068531;28;20450;-69
2022/04/01 06:52:40;;;;;;;5.60;3.60;;;20.70;42.30;;;;;;5075258;28;20463;-68
2022/04/01 06:55:10;;;;;;;7.50;4.13;;;20.70;42.40;;;;;;5065560;28;20494;-68
2022/04/01 06:57:36;;;;;;;5.20;3.30;;;20.70;42.40;;;;;;5062432;28;20415;-70
2022/04/01 07:00:08;;;;;;;4.40;3.10;;;20.70;42.20;;;;;;5062241;28;20500;-68
2022/04/01 07:02:35;;;;;;;6.13;3.40;;;20.70;42.20;;;;;;5062474;28;20601;-69
2022/04/01 07:05:01;;;;;;;7.23;4.13;;;20.70;42.30;;;;;;5068003;28;20446;-69
2022/04/01 07:07:27;;;;;;;5.33;2.90;;;20.70;42.40;;;;;;5066523;28;20773;-68
2022/04/01 07:09:53;;;;;;;5.27;2.80;;;20.70;41.90;;;;;;5067337;28;20853;-69
2022/04/01 07:12:19;;;;;;;4.60;2.83;;;20.70;41.60;;;;;;5070857;28;20553;-69
2022/04/01 07:14:45;;;;;;;4.63;2.90;;;20.70;41.70;;;;;;5053529;28;20310;-71
2022/04/01 07:17:11;;;;;;;4.77;3.07;;;20.70;41.60;;;;;;5065165;28;20653;-66
2022/04/01 07:19:36;;;;;;;4.37;2.87;;;20.80;41.30;;;;;;5063884;28;20452;-66
2022/04/01 07:22:02;;;;;;;4.73;2.60;;;20.90;42.40;;;;;;5060920;28;20684;-65
2022/04/01 07:24:30;;;;;;;8.10;3.20;;;20.90;42.00;;;;;;5058612;28;20589;-65
2022/04/01 07:26:56;;;;;;;5.70;3.10;;;20.90;40.50;;;;;;5067123;28;20652;-67
2022/04/01 07:29:22;;;;;;;4.93;2.60;;;20.80;39.60;;;;;;5068453;28;20428;-65
2022/04/01 07:34:38;;;;;;;5.03;2.67;;;20.80;38.80;;;;;;5054733;28;20725;-66
2022/04/01 07:37:08;;;;;;;4.73;2.67;;;20.80;38.70;;;;;;5063173;28;20415;-65
2022/04/01 07:39:34;;;;;;;6.63;2.70;;;20.80;38.60;;;;;;5072141;28;20462;-66
2022/04/01 07:42:00;;;;;;;6.37;3.27;;;20.80;38.80;;;;;;5072368;28;20465;-67
2022/04/01 07:44:26;;;;;;;4.67;2.53;;;20.80;38.40;;;;;;5072905;28;20418;-66
2022/04/01 07:46:52;;;;;;;7.33;2.90;;;20.80;38.40;;;;;;5074301;28;20407;-66
2022/04/01 07:49:18;;;;;;;6.80;2.23;;;20.80;38.80;;;;;;5065670;28;20177;-65
2022/04/01 07:51:45;;;;;;;10.23;3.10;;;20.80;38.40;;;;;;5069400;28;20459;-65
2022/04/01 07:54:14;;;;;;;4.00;2.20;;;20.80;38.30;;;;;;5069468;28;20925;-67
2022/04/01 07:56:41;;;;;;;7.47;2.33;;;20.90;38.00;;;;;;5069826;28;20449;-67
2022/04/01 07:59:14;;;;;;;7.87;2.67;;;20.90;38.20;;;;;;5069835;28;20459;-67
2022/04/01 08:01:39;;;;;;;5.93;2.23;;;20.90;38.10;;;;;;5069404;28;20426;-65
2022/04/01 08:04:05;;;;;;;11.00;2.30;;;20.90;38.20;;;;;;5069665;28;20414;-67
2022/04/01 08:06:31;;;;;;;4.70;2.33;;;20.90;38.00;;;;;;5069388;28;20632;-67
2022/04/01 08:08:58;;;;;;;4.50;2.43;;;20.90;38.30;;;;;;5069450;28;20176;-67
2022/04/01 08:11:27;;;;;;;3.80;1.90;;;20.90;38.10;;;;;;5069613;28;20449;-66
2022/04/01 08:13:54;;;;;;;4.60;1.60;;;20.90;38.00;;;;;;5070199;28;20403;-66
2022/04/01 08:16:20;;;;;;;3.80;1.30;;;20.90;37.90;;;;;;5069168;28;20426;-67
2022/04/01 08:18:46;;;;;;;3.07;1.70;;;20.90;37.70;;;;;;5069384;28;20541;-65
2022/04/01 08:21:11;;;;;;;3.20;1.80;;;20.90;37.90;;;;;;5068883;28;20263;-66
2022/04/01 08:23:37;;;;;;;3.63;2.10;;;20.90;37.80;;;;;;5069368;28;20506;-66
2022/04/01 08:26:04;;;;;;;3.60;1.60;;;20.90;38.20;;;;;;5069139;28;20641;-67
2022/04/01 08:28:30;;;;;;;15.93;1.87;;;20.90;38.50;;;;;;5068777;28;20641;-67
2022/04/01 08:30:56;;;;;;;9.30;1.83;;;20.90;38.30;;;;;;5069366;28;20446;-67
2022/04/01 08:33:21;;;;;;;5.67;1.70;;;20.90;37.80;;;;;;5068921;28;20419;-67
2022/04/01 08:35:47;;;;;;;3.10;1.50;;;20.90;38.00;;;;;;5069974;28;20168;-66
2022/04/01 08:38:13;;;;;;;7.10;1.73;;;20.90;37.20;;;;;;5068852;28;20196;-67
2022/04/01 08:40:39;;;;;;;3.53;1.77;;;20.90;37.60;;;;;;5068799;28;20410;-70
2022/04/01 08:43:05;;;;;;;3.63;1.60;;;20.90;37.70;;;;;;5068921;28;20518;-68
2022/04/01 08:45:37;;;;;;;16.93;2.20;;;20.90;37.90;;;;;;5068719;28;20171;-67
2022/04/01 08:48:07;;;;;;;8.70;1.90;;;20.90;37.80;;;;;;5069141;28;20495;-67
2022/04/01 08:50:33;;;;;;;8.23;1.93;;;20.90;38.80;;;;;;5067757;28;20410;-68
2022/04/01 08:53:00;;;;;;;5.67;1.57;;;20.90;38.40;;;;;;5069010;28;20410;-68
2022/04/01 08:55:26;;;;;;;6.10;1.90;;;20.90;37.90;;;;;;5069352;28;20687;-68
2022/04/01 08:57:52;;;;;;;8.97;1.60;;;20.90;38.00;;;;;;5068266;28;20422;-67
2022/04/01 09:00:17;;;;;;;3.00;1.50;;;20.90;37.90;;;;;;5068155;28;20192;-67
2022/04/01 09:02:45;;;;;;;19.43;1.70;;;20.90;38.20;;;;;;5067954;28;20950;-67
2022/04/01 09:05:11;;;;;;;6.87;1.43;;;20.90;38.20;;;;;;5067950;28;20176;-67
2022/04/01 09:07:37;;;;;;;5.80;1.97;;;20.90;38.20;;;;;;5068682;28;20411;-67
2022/04/01 09:10:08;;;;;;;6.37;1.47;;;20.90;38.00;;;;;;5068872;28;20403;-66
2022/04/01 09:12:34;;;;;;;2.97;1.53;;;20.90;37.70;;;;;;5068889;28;20283;-65
2022/04/01 09:15:01;;;;;;;3.60;1.57;;;20.90;38.50;;;;;;5068158;28;20403;-67
2022/04/01 09:18:02;;;;;;;2.50;1.23;;;20.90;38.00;;;;;;5068416;28;20429;-66
2022/04/01 09:20:28;;;;;;;2.20;1.30;;;20.90;37.50;;;;;;5011755;28;20411;-66
2022/04/01 09:22:58;;;;;;;2.43;1.47;;;20.90;37.60;;;;;;5057965;28;20391;-66
2022/04/01 09:25:24;;;;;;;2.80;1.77;;;20.90;37.70;;;;;;5070444;28;20199;-66
2022/04/01 09:27:50;;;;;;;2.73;1.30;;;20.90;37.80;;;;;;5070089;28;20426;-66
2022/04/01 09:30:27;;;;;;;1.90;1.20;;;20.90;37.60;;;;;;5068430;28;20168;-66
2022/04/01 09:32:56;;;;;;;3.60;1.10;;;20.90;37.70;;;;;;5068514;28;20434;-66
2022/04/01 09:35:24;;;;;;;3.30;1.30;;;20.90;37.50;;;;;;5069126;28;20421;-67
2022/04/01 09:37:54;;;;;;;2.10;1.20;;;21.00;37.90;;;;;;5068318;28;20403;-66
2022/04/01 09:40:22;;;;;;;2.37;1.40;;;21.00;37.40;;;;;;5067975;28;20453;-65
2022/04/01 09:42:49;;;;;;;2.93;1.50;;;21.00;37.50;;;;;;5056826;28;20449;-65
2022/04/01 09:45:19;;;;;;;2.23;1.30;;;21.00;37.40;;;;;;5049775;28;20411;-66
2022/04/01 09:47:45;;;;;;;2.80;1.23;;;21.00;37.20;;;;;;5051413;28;20948;-66
2022/04/01 09:50:17;;;;;;;2.47;1.57;;;21.00;37.10;;;;;;5051289;28;20742;-65
2022/04/01 09:52:43;;;;;;;2.07;1.10;;;21.00;37.40;;;;;;5052163;28;20819;-66
2022/04/01 09:55:10;;;;;;;1.60;1.10;;;21.00;37.40;;;;;;5052427;28;20416;-66
2022/04/01 09:57:36;;;;;;;3.00;1.30;;;21.00;37.40;;;;;;5051956;28;20173;-66
2022/04/01 10:00:04;;;;;;;1.83;1.07;;;21.00;37.10;;;;;;5060051;28;20459;-67
2022/04/01 10:02:30;;;;;;;4.83;1.07;;;21.00;37.40;;;;;;5061171;28;20466;-66
2022/04/01 10:04:58;;;;;;;1.80;1.10;;;21.00;36.90;;;;;;5062505;28;20415;-64
2022/04/01 10:07:26;;;;;;;2.70;1.10;;;21.00;37.30;;;;;;5065809;28;20242;-66
2022/04/01 10:09:55;;;;;;;1.87;1.17;;;21.00;37.20;;;;;;5064927;28;20808;-66
2022/04/01 10:12:25;;;;;;;1.77;1.00;;;21.00;37.10;;;;;;5062225;28;20535;-66
2022/04/01 10:14:56;;;;;;;1.57;1.10;;;21.10;38.80;;;;;;5055540;28;20526;-67
2022/04/01 10:17:22;;;;;;;2.07;1.43;;;21.10;39.10;;;;;;5054631;28;20423;-66
2022/04/01 10:19:49;;;;;;;1.90;1.20;;;21.10;38.90;;;;;;5071218;28;20795;-65
2022/04/01 10:22:16;;;;;;;6.47;1.43;;;21.20;39.10;;;;;;5070915;28;20446;-65
2022/04/01 10:24:59;;;;;;;1.60;1.00;;;21.20;39.20;;;;;;5071579;28;20403;-64
2022/04/01 10:27:30;;;;;;;1.60;1.10;;;21.20;39.20;;;;;;5071089;28;20440;-67
2022/04/01 10:29:57;;;;;;;1.97;1.30;;;21.20;39.30;;;;;;5066533;28;20414;-68
2022/04/01 10:32:35;;;;;;;2.00;1.00;;;21.20;39.60;;;;;;5051107;28;20843;-68
2022/04/01 10:35:03;;;;;;;1.60;0.97;;;21.20;40.00;;;;;;5051094;28;20827;-67
2022/04/01 10:37:31;;;;;;;2.83;1.00;;;21.30;40.20;;;;;;5050620;28;20482;-67
2022/04/01 10:40:04;;;;;;;2.33;0.97;;;21.30;40.10;;;;;;5051461;28;20780;-67
2022/04/01 10:42:38;;;;;;;1.60;1.00;;;21.30;40.40;;;;;;5050351;28;20427;-67
2022/04/01 10:45:22;;;;;;;4.97;1.30;;;21.30;40.40;;;;;;5051004;28;20435;-67
2022/04/01 10:53:39;;;;;;;9.60;1.30;;;21.40;41.40;;;;;;5058583;28;20938;-67
2022/04/01 10:56:23;;;;;;;8.47;1.20;;;21.40;41.00;;;;;;5069182;28;20422;-67
2022/04/01 10:59:11;;;;;;;7.13;1.40;;;21.40;40.80;;;;;;5051671;28;20799;-66
2022/04/01 11:01:53;;;;;;;8.20;1.10;;;21.40;42.20;;;;;;5052443;28;20419;-67
2022/04/01 11:04:19;;;;;;;7.60;1.20;;;21.40;41.80;;;;;;5052196;28;20799;-66
2022/04/01 11:07:02;;;;;;;2.83;1.03;;;21.40;41.50;;;;;;5059024;28;20453;-67
2022/04/01 11:09:47;;;;;;;3.60;1.20;;;21.40;41.40;;;;;;5053476;28;20830;-65
2022/04/01 11:12:16;;;;;;;5.63;1.53;;;21.50;41.40;;;;;;5050448;28;20468;-66
2022/04/01 11:14:56;;;;;;;5.67;1.13;;;21.50;41.60;;;;;;5064422;28;20927;-66
2022/04/01 11:17:23;;;;;;;2.70;1.17;;;21.50;41.80;;;;;;5071356;28;20410;-67
2022/04/01 11:20:09;;;;;;;6.90;1.20;;;21.50;41.60;;;;;;5069941;28;20549;-66
2022/04/01 11:22:48;;;;;;;2.10;1.23;;;21.50;41.00;;;;;;5071694;28;20435;-67
2022/04/01 11:25:23;;;;;;;4.90;1.40;;;21.50;41.40;;;;;;5072057;28;20379;-67
2022/04/01 11:28:01;;;;;;;2.97;1.10;;;21.50;41.40;;;;;;5087010;28;20518;-67
2022/04/01 11:30:31;;;;;;;2.37;1.07;;;21.50;41.60;;;;;;5068961;28;20423;-67
2022/04/01 11:32:59;;;;;;;3.63;1.17;;;21.50;41.50;;;;;;5070396;28;20464;-67
2022/04/01 11:35:29;;;;;;;3.80;1.13;;;21.50;41.50;;;;;;5070840;28;20446;-66
2022/04/01 11:37:59;;;;;;;2.70;1.20;;;21.50;41.60;;;;;;5069951;28;20411;-67
2022/04/01 11:40:31;;;;;;;5.20;1.97;;;21.50;41.60;;;;;;5070725;28;20434;-66
2022/04/01 11:43:05;;;;;;;12.57;3.87;;;21.60;42.00;;;;;;5050839;28;20503;-68
2022/04/01 11:45:34;;;;;;;15.63;4.10;;;21.60;41.60;;;;;;5051563;28;20412;-67
2022/04/01 11:48:01;;;;;;;13.13;4.67;;;21.60;41.90;;;;;;5061191;28;20417;-65
2022/04/01 11:50:27;;;;;;;15.93;5.10;;;21.60;42.10;;;;;;5069270;28;20403;-67
2022/04/01 11:52:57;;;;;;;17.20;4.33;;;21.60;41.50;;;;;;5069408;28;20907;-66
2022/04/01 11:55:26;;;;;;;16.37;5.03;;;21.60;41.80;;;;;;5057211;28;20428;-66
2022/04/01 11:57:54;;;;;;;12.40;4.80;;;21.60;42.30;;;;;;5050847;28;20414;-67
2022/04/01 12:00:27;;;;;;;19.73;5.77;;;21.60;41.90;;;;;;5049294;28;20498;-66
2022/04/01 12:02:54;;;;;;;15.33;5.13;;;21.60;41.80;;;;;;5049662;28;20503;-67
2022/04/01 12:05:21;;;;;;;15.90;5.33;;;21.60;42.30;;;;;;5061337;28;20795;-67
2022/04/01 12:10:39;;;;;;;9.77;4.20;;;21.60;41.80;;;;;;5065460;28;20445;-67
2022/04/01 12:13:07;;;;;;;16.77;5.10;;;21.60;41.80;;;;;;5061729;28;20448;-68
2022/04/01 12:15:35;;;;;;;12.10;5.03;;;21.70;42.40;;;;;;5049887;28;20411;-67
2022/04/01 12:18:07;;;;;;;17.30;5.87;;;21.70;42.30;;;;;;5061309;28;20505;-66
2022/04/01 12:20:53;;;;;;;15.47;5.27;;;21.70;42.00;;;;;;5060985;28;20435;-66
2022/04/01 12:23:21;;;;;;;18.73;4.70;;;21.60;40.00;;;;;;5066836;28;20511;-66
2022/04/01 12:25:51;;;;;;;11.77;4.53;;;21.60;39.80;;;;;;5049511;28;20519;-67
2022/04/01 12:28:21;;;;;;;10.27;5.10;;;21.60;39.80;;;;;;5053262;28;20542;-67
2022/04/01 12:30:52;;;;;;;14.20;5.10;;;21.60;40.00;;;;;;5058752;28;20451;-64
2022/04/01 12:33:28;;;;;;;9.20;4.07;;;21.60;40.10;;;;;;5060035;28;20418;-67
2022/04/01 12:36:08;;;;;;;13.50;4.87;;;21.60;39.40;;;;;;5057268;28;20475;-65
2022/04/01 12:38:42;;;;;;;16.60;4.17;;;21.60;39.50;;;;;;5054666;28;20524;-66
2022/04/01 12:41:19;;;;;;;12.00;4.30;;;21.70;41.00;;;;;;5064708;28;20443;-67
2022/04/01 12:43:54;;;;;;;12.23;4.13;;;21.70;41.70;;;;;;5050574;28;20807;-67
2022/04/01 12:46:21;;;;;;;17.80;4.07;;;21.70;41.90;;;;;;5056409;28;20426;-68
2022/04/01 12:48:59;;;;;;;19.77;4.77;;;21.70;42.10;;;;;;5049546;28;20546;-66
2022/04/01 12:51:31;;;;;;;12.30;3.90;;;21.70;42.20;;;;;;5067661;28;20472;-67
2022/04/01 12:54:05;;;;;;;22.57;5.10;;;21.80;42.40;;;;;;5070895;28;20497;-67
2022/04/01 12:56:42;;;;;;;13.80;4.70;;;21.80;42.00;;;;;;5070442;28;20509;-67
2022/04/01 12:59:16;;;;;;;14.07;4.93;;;21.80;41.60;;;;;;5053774;28;20450;-67
2022/04/01 13:01:46;;;;;;;13.40;4.50;;;21.70;41.00;;;;;;5060645;28;20445;-67
2022/04/01 13:04:20;;;;;;;9.80;5.10;;;21.70;41.10;;;;;;5053755;28;20424;-67
2022/04/01 13:07:12;;;;;;;11.07;4.53;;;21.70;41.50;;;;;;5053616;28;20425;-67
2022/04/01 13:09:52;;;;;;;17.93;4.80;;;21.70;41.30;;;;;;5060908;28;20422;-66
2022/04/01 13:12:21;;;;;;;12.20;5.00;;;21.70;41.40;;;;;;5071469;28;20476;-68
2022/04/01 13:14:55;;;;;;;11.37;4.60;;;21.70;41.40;;;;;;5062810;28;20431;-67